sensor_id;sensor_type;location;lat;lon;timestamp;temperature;humidity
22491;DHT22;11412;50.802;4.350;2023-05-17T00:00:48;10.60;99.90
22491;DHT22;11412;50.802;4.350;2023-05-17T00:03:13;10.50;99.90
22491;DHT22;11412;50.802;4.350;2023-05-17T00:05:39;10.40;99.90
22491;DHT22;11412;50.802;4.350;2023-05-17T00:08:05;10.40;99.90
22491;DHT22;11412;50.802;4.350;2023-05-17T00:10:30;10.50;99.90
22491;DHT22;11412;50.802;4.350;2023-05-17T00:12:56;10.60;99.90
22491;DHT22;11412;50.802;4.350;2023-05-17T00:15:22;10.70;99.90
22491;DHT22;11412;50.802;4.350;2023-05-17T00:17:47;10.60;99.90
22491;DHT22;11412;50.802;4.350;2023-05-17T00:20:13;10.70;99.90
22491;DHT22;11412;50.802;4.350;2023-05-17T00:22:39;10.60;99.90
22491;DHT22;11412;50.802;4.350;2023-05-17T00:25:05;10.50;99.90
22491;DHT22;11412;50.802;4.350;2023-05-17T00:27:31;10.40;99.90
22491;DHT22;11412;50.802;4.350;2023-05-17T00:29:57;10.40;99.90
22491;DHT22;11412;50.802;4.350;2023-05-17T00:32:23;10.30;99.90
22491;DHT22;11412;50.802;4.350;2023-05-17T00:34:49;10.20;99.90
22491;DHT22;11412;50.802;4.350;2023-05-17T00:37:14;10.10;99.90
22491;DHT22;11412;50.802;4.350;2023-05-17T00:39:40;10.10;99.90
22491;DHT22;11412;50.802;4.350;2023-05-17T00:42:06;10.00;99.90
22491;DHT22;11412;50.802;4.350;2023-05-17T00:44:32;10.00;99.90
22491;DHT22;11412;50.802;4.350;2023-05-17T00:46:57;10.00;99.90
22491;DHT22;11412;50.802;4.350;2023-05-17T00:49:25;9.90;99.90
22491;DHT22;11412;50.802;4.350;2023-05-17T00:51:52;9.90;99.90
22491;DHT22;11412;50.802;4.350;2023-05-17T00:54:18;10.00;99.90
22491;DHT22;11412;50.802;4.350;2023-05-17T00:56:44;9.90;99.90
22491;DHT22;11412;50.802;4.350;2023-05-17T00:59:12;9.80;99.90
22491;DHT22;11412;50.802;4.350;2023-05-17T01:01:41;9.80;99.90
22491;DHT22;11412;50.802;4.350;2023-05-17T01:04:08;9.80;99.90
22491;DHT22;11412;50.802;4.350;2023-05-17T01:06:35;9.80;99.90
22491;DHT22;11412;50.802;4.350;2023-05-17T01:09:01;9.70;99.90
22491;DHT22;11412;50.802;4.350;2023-05-17T01:14:31;9.80;99.90
22491;DHT22;11412;50.802;4.350;2023-05-17T01:17:03;9.80;99.90
22491;DHT22;11412;50.802;4.350;2023-05-17T01:22:14;9.90;99.90
22491;DHT22;11412;50.802;4.350;2023-05-17T01:24:52;9.90;99.90
22491;DHT22;11412;50.802;4.350;2023-05-17T01:27:24;9.90;99.90
22491;DHT22;11412;50.802;4.350;2023-05-17T01:29:51;9.90;99.90
22491;DHT22;11412;50.802;4.350;2023-05-17T01:32:18;9.90;99.90
22491;DHT22;11412;50.802;4.350;2023-05-17T01:34:44;9.80;99.90
22491;DHT22;11412;50.802;4.350;2023-05-17T01:37:10;9.70;99.90
22491;DHT22;11412;50.802;4.350;2023-05-17T01:39:35;9.70;99.90
22491;DHT22;11412;50.802;4.350;2023-05-17T01:42:10;9.70;99.90
22491;DHT22;11412;50.802;4.350;2023-05-17T01:44:46;9.70;99.90
22491;DHT22;11412;50.802;4.350;2023-05-17T01:47:23;9.70;99.90
22491;DHT22;11412;50.802;4.350;2023-05-17T01:49:53;9.60;99.90
22491;DHT22;11412;50.802;4.350;2023-05-17T01:52:52;9.50;99.90
22491;DHT22;11412;50.802;4.350;2023-05-17T01:57:44;9.50;99.90
22491;DHT22;11412;50.802;4.350;2023-05-17T02:00:13;9.50;99.90
22491;DHT22;11412;50.802;4.350;2023-05-17T02:02:39;9.50;99.90
22491;DHT22;11412;50.802;4.350;2023-05-17T02:05:05;9.50;99.90
22491;DHT22;11412;50.802;4.350;2023-05-17T02:07:31;9.50;99.90
22491;DHT22;11412;50.802;4.350;2023-05-17T02:09:57;9.50;99.90
22491;DHT22;11412;50.802;4.350;2023-05-17T02:12:22;9.50;99.90
22491;DHT22;11412;50.802;4.350;2023-05-17T02:14:49;9.40;99.90
22491;DHT22;11412;50.802;4.350;2023-05-17T02:17:15;9.50;99.90
22491;DHT22;11412;50.802;4.350;2023-05-17T02:19:42;9.40;99.90
22491;DHT22;11412;50.802;4.350;2023-05-17T02:22:07;9.40;99.90
22491;DHT22;11412;50.802;4.350;2023-05-17T02:24:33;9.20;99.90
22491;DHT22;11412;50.802;4.350;2023-05-17T02:26:58;9.20;99.90
22491;DHT22;11412;50.802;4.350;2023-05-17T02:29:24;9.10;99.90
22491;DHT22;11412;50.802;4.350;2023-05-17T02:31:50;9.00;99.90
22491;DHT22;11412;50.802;4.350;2023-05-17T02:34:15;9.00;99.90
22491;DHT22;11412;50.802;4.350;2023-05-17T02:36:41;9.10;99.90
22491;DHT22;11412;50.802;4.350;2023-05-17T02:39:08;9.10;99.90
22491;DHT22;11412;50.802;4.350;2023-05-17T02:41:34;9.00;99.90
22491;DHT22;11412;50.802;4.350;2023-05-17T02:44:00;9.00;99.90
22491;DHT22;11412;50.802;4.350;2023-05-17T02:46:26;9.00;99.90
22491;DHT22;11412;50.802;4.350;2023-05-17T02:48:51;8.90;99.90
22491;DHT22;11412;50.802;4.350;2023-05-17T02:51:17;8.80;99.90
22491;DHT22;11412;50.802;4.350;2023-05-17T02:53:43;8.80;99.90
22491;DHT22;11412;50.802;4.350;2023-05-17T02:56:08;8.80;99.90
22491;DHT22;11412;50.802;4.350;2023-05-17T02:58:34;8.80;99.90
22491;DHT22;11412;50.802;4.350;2023-05-17T03:00:59;8.70;99.90
22491;DHT22;11412;50.802;4.350;2023-05-17T03:03:25;8.70;99.90
22491;DHT22;11412;50.802;4.350;2023-05-17T03:05:51;8.60;99.90
22491;DHT22;11412;50.802;4.350;2023-05-17T03:08:16;8.50;99.90
22491;DHT22;11412;50.802;4.350;2023-05-17T03:10:42;8.50;99.90
22491;DHT22;11412;50.802;4.350;2023-05-17T03:13:08;8.50;99.90
22491;DHT22;11412;50.802;4.350;2023-05-17T03:15:34;8.50;99.90
22491;DHT22;11412;50.802;4.350;2023-05-17T03:18:00;8.60;99.90
22491;DHT22;11412;50.802;4.350;2023-05-17T03:20:25;8.60;99.90
22491;DHT22;11412;50.802;4.350;2023-05-17T03:22:51;8.60;99.90
22491;DHT22;11412;50.802;4.350;2023-05-17T03:25:17;8.60;99.90
22491;DHT22;11412;50.802;4.350;2023-05-17T03:27:43;8.60;99.90
22491;DHT22;11412;50.802;4.350;2023-05-17T03:30:08;8.50;99.90
22491;DHT22;11412;50.802;4.350;2023-05-17T03:32:36;8.50;99.90
22491;DHT22;11412;50.802;4.350;2023-05-17T03:35:02;8.50;99.90
22491;DHT22;11412;50.802;4.350;2023-05-17T03:37:28;8.50;99.90
22491;DHT22;11412;50.802;4.350;2023-05-17T03:39:53;8.40;99.90
22491;DHT22;11412;50.802;4.350;2023-05-17T03:42:19;8.40;99.90
22491;DHT22;11412;50.802;4.350;2023-05-17T03:44:45;8.40;99.90
22491;DHT22;11412;50.802;4.350;2023-05-17T03:47:11;8.40;99.90
22491;DHT22;11412;50.802;4.350;2023-05-17T03:49:36;8.30;99.90
22491;DHT22;11412;50.802;4.350;2023-05-17T03:52:02;8.40;99.90
22491;DHT22;11412;50.802;4.350;2023-05-17T03:54:28;8.40;99.90
22491;DHT22;11412;50.802;4.350;2023-05-17T03:56:53;8.40;99.90
22491;DHT22;11412;50.802;4.350;2023-05-17T03:59:19;8.40;99.90
22491;DHT22;11412;50.802;4.350;2023-05-17T04:01:45;8.30;99.90
22491;DHT22;11412;50.802;4.350;2023-05-17T04:04:10;8.40;99.90
22491;DHT22;11412;50.802;4.350;2023-05-17T04:06:37;8.30;99.90
22491;DHT22;11412;50.802;4.350;2023-05-17T04:09:03;8.30;99.90
22491;DHT22;11412;50.802;4.350;2023-05-17T04:11:29;8.20;99.90
22491;DHT22;11412;50.802;4.350;2023-05-17T04:13:54;8.20;99.90
22491;DHT22;11412;50.802;4.350;2023-05-17T04:16:21;8.20;99.90
22491;DHT22;11412;50.802;4.350;2023-05-17T04:18:47;8.30;99.90
22491;DHT22;11412;50.802;4.350;2023-05-17T04:21:17;8.30;99.90
22491;DHT22;11412;50.802;4.350;2023-05-17T04:23:43;8.30;99.90
22491;DHT22;11412;50.802;4.350;2023-05-17T04:26:09;8.40;99.90
22491;DHT22;11412;50.802;4.350;2023-05-17T04:28:35;8.30;99.90
22491;DHT22;11412;50.802;4.350;2023-05-17T04:31:01;8.40;99.90
22491;DHT22;11412;50.802;4.350;2023-05-17T04:33:27;8.40;99.90
22491;DHT22;11412;50.802;4.350;2023-05-17T04:35:55;8.40;99.90
22491;DHT22;11412;50.802;4.350;2023-05-17T04:38:21;8.30;99.90
22491;DHT22;11412;50.802;4.350;2023-05-17T04:40:48;8.30;99.90
22491;DHT22;11412;50.802;4.350;2023-05-17T04:43:14;8.40;99.90
22491;DHT22;11412;50.802;4.350;2023-05-17T04:45:39;8.50;99.90
22491;DHT22;11412;50.802;4.350;2023-05-17T04:48:05;8.70;99.90
22491;DHT22;11412;50.802;4.350;2023-05-17T04:50:31;8.80;99.90
22491;DHT22;11412;50.802;4.350;2023-05-17T04:52:57;8.90;99.90
22491;DHT22;11412;50.802;4.350;2023-05-17T04:55:23;8.80;99.90
22491;DHT22;11412;50.802;4.350;2023-05-17T04:57:48;8.90;99.90
22491;DHT22;11412;50.802;4.350;2023-05-17T05:00:14;8.90;99.90
22491;DHT22;11412;50.802;4.350;2023-05-17T05:02:41;9.10;99.90
22491;DHT22;11412;50.802;4.350;2023-05-17T05:05:07;9.10;99.90
22491;DHT22;11412;50.802;4.350;2023-05-17T05:07:34;9.20;99.90
22491;DHT22;11412;50.802;4.350;2023-05-17T05:10:00;9.30;99.90
22491;DHT22;11412;50.802;4.350;2023-05-17T05:12:26;9.30;99.90
22491;DHT22;11412;50.802;4.350;2023-05-17T05:14:52;9.50;99.90
22491;DHT22;11412;50.802;4.350;2023-05-17T05:17:18;9.60;99.90
22491;DHT22;11412;50.802;4.350;2023-05-17T05:19:44;9.60;99.90
22491;DHT22;11412;50.802;4.350;2023-05-17T05:22:10;9.80;99.90
22491;DHT22;11412;50.802;4.350;2023-05-17T05:24:35;9.80;99.90
22491;DHT22;11412;50.802;4.350;2023-05-17T05:27:01;9.90;99.90
22491;DHT22;11412;50.802;4.350;2023-05-17T05:29:27;9.90;99.90
22491;DHT22;11412;50.802;4.350;2023-05-17T05:31:52;10.00;99.90
22491;DHT22;11412;50.802;4.350;2023-05-17T05:34:18;10.00;99.90
22491;DHT22;11412;50.802;4.350;2023-05-17T05:36:44;10.10;99.90
22491;DHT22;11412;50.802;4.350;2023-05-17T05:39:10;10.20;99.90
22491;DHT22;11412;50.802;4.350;2023-05-17T05:41:37;10.30;99.90
22491;DHT22;11412;50.802;4.350;2023-05-17T05:44:02;10.40;99.90
22491;DHT22;11412;50.802;4.350;2023-05-17T05:46:28;10.50;99.90
22491;DHT22;11412;50.802;4.350;2023-05-17T05:48:54;10.60;99.90
22491;DHT22;11412;50.802;4.350;2023-05-17T05:51:19;10.60;99.90
22491;DHT22;11412;50.802;4.350;2023-05-17T05:53:45;10.70;99.90
22491;DHT22;11412;50.802;4.350;2023-05-17T05:56:11;10.90;99.90
22491;DHT22;11412;50.802;4.350;2023-05-17T05:58:38;11.00;99.90
22491;DHT22;11412;50.802;4.350;2023-05-17T06:01:03;11.10;99.90
22491;DHT22;11412;50.802;4.350;2023-05-17T06:03:29;11.20;99.90
22491;DHT22;11412;50.802;4.350;2023-05-17T06:05:55;11.10;99.90
22491;DHT22;11412;50.802;4.350;2023-05-17T06:08:20;11.20;99.90
22491;DHT22;11412;50.802;4.350;2023-05-17T06:10:46;11.30;99.90
22491;DHT22;11412;50.802;4.350;2023-05-17T06:13:12;11.30;99.90
22491;DHT22;11412;50.802;4.350;2023-05-17T06:15:38;11.50;99.90
22491;DHT22;11412;50.802;4.350;2023-05-17T06:18:04;11.60;99.90
22491;DHT22;11412;50.802;4.350;2023-05-17T06:20:30;11.60;99.90
22491;DHT22;11412;50.802;4.350;2023-05-17T06:22:55;11.70;99.90
22491;DHT22;11412;50.802;4.350;2023-05-17T06:25:21;11.80;99.90
22491;DHT22;11412;50.802;4.350;2023-05-17T06:27:46;11.90;99.90
22491;DHT22;11412;50.802;4.350;2023-05-17T06:30:12;12.00;99.90
22491;DHT22;11412;50.802;4.350;2023-05-17T06:32:38;12.00;99.90
22491;DHT22;11412;50.802;4.350;2023-05-17T06:35:04;12.10;99.90
22491;DHT22;11412;50.802;4.350;2023-05-17T06:37:31;12.10;99.90
22491;DHT22;11412;50.802;4.350;2023-05-17T06:40:05;12.00;99.90
22491;DHT22;11412;50.802;4.350;2023-05-17T06:42:31;12.20;99.90
22491;DHT22;11412;50.802;4.350;2023-05-17T06:44:57;12.30;99.90
22491;DHT22;11412;50.802;4.350;2023-05-17T06:47:23;12.40;99.90
22491;DHT22;11412;50.802;4.350;2023-05-17T06:49:49;12.50;99.90
22491;DHT22;11412;50.802;4.350;2023-05-17T06:52:15;12.50;99.90
22491;DHT22;11412;50.802;4.350;2023-05-17T06:54:40;12.60;99.90
22491;DHT22;11412;50.802;4.350;2023-05-17T06:57:06;12.60;99.90
22491;DHT22;11412;50.802;4.350;2023-05-17T06:59:32;12.60;99.90
22491;DHT22;11412;50.802;4.350;2023-05-17T07:01:58;12.80;99.90
22491;DHT22;11412;50.802;4.350;2023-05-17T07:04:25;12.90;99.90
22491;DHT22;11412;50.802;4.350;2023-05-17T07:06:51;13.20;99.90
22491;DHT22;11412;50.802;4.350;2023-05-17T07:09:18;13.50;99.90
22491;DHT22;11412;50.802;4.350;2023-05-17T07:11:44;13.70;99.90
22491;DHT22;11412;50.802;4.350;2023-05-17T07:14:10;13.80;99.90
22491;DHT22;11412;50.802;4.350;2023-05-17T07:16:36;13.70;99.90
22491;DHT22;11412;50.802;4.350;2023-05-17T07:19:01;13.60;99.90
22491;DHT22;11412;50.802;4.350;2023-05-17T07:21:27;13.50;99.90
22491;DHT22;11412;50.802;4.350;2023-05-17T07:23:53;13.50;99.90
22491;DHT22;11412;50.802;4.350;2023-05-17T07:26:19;13.50;99.90
22491;DHT22;11412;50.802;4.350;2023-05-17T07:28:45;13.50;99.90
22491;DHT22;11412;50.802;4.350;2023-05-17T07:31:11;13.60;99.90
22491;DHT22;11412;50.802;4.350;2023-05-17T07:33:37;13.70;99.90
22491;DHT22;11412;50.802;4.350;2023-05-17T07:36:03;13.80;99.90
22491;DHT22;11412;50.802;4.350;2023-05-17T07:38:29;13.90;99.90
22491;DHT22;11412;50.802;4.350;2023-05-17T07:40:55;13.90;99.90
22491;DHT22;11412;50.802;4.350;2023-05-17T07:43:21;13.80;99.90
22491;DHT22;11412;50.802;4.350;2023-05-17T07:45:47;13.80;99.90
22491;DHT22;11412;50.802;4.350;2023-05-17T07:48:13;13.80;99.90
22491;DHT22;11412;50.802;4.350;2023-05-17T07:50:40;14.00;99.90
22491;DHT22;11412;50.802;4.350;2023-05-17T07:53:06;14.40;99.90
22491;DHT22;11412;50.802;4.350;2023-05-17T07:55:32;14.80;99.90
22491;DHT22;11412;50.802;4.350;2023-05-17T07:57:58;15.10;99.90
22491;DHT22;11412;50.802;4.350;2023-05-17T08:00:24;15.50;99.90
22491;DHT22;11412;50.802;4.350;2023-05-17T08:02:50;16.00;99.90
22491;DHT22;11412;50.802;4.350;2023-05-17T08:05:16;16.30;99.90
22491;DHT22;11412;50.802;4.350;2023-05-17T08:07:42;16.40;99.90
22491;DHT22;11412;50.802;4.350;2023-05-17T08:10:08;16.70;99.90
22491;DHT22;11412;50.802;4.350;2023-05-17T08:12:33;17.00;99.90
22491;DHT22;11412;50.802;4.350;2023-05-17T08:14:59;17.40;99.90
22491;DHT22;11412;50.802;4.350;2023-05-17T08:17:25;17.40;99.90
22491;DHT22;11412;50.802;4.350;2023-05-17T08:19:51;17.30;99.90
22491;DHT22;11412;50.802;4.350;2023-05-17T08:22:17;16.90;99.90
22491;DHT22;11412;50.802;4.350;2023-05-17T08:24:42;16.90;99.90
22491;DHT22;11412;50.802;4.350;2023-05-17T08:27:10;16.90;99.90
22491;DHT22;11412;50.802;4.350;2023-05-17T08:29:36;17.10;99.90
22491;DHT22;11412;50.802;4.350;2023-05-17T08:32:02;16.90;99.90
22491;DHT22;11412;50.802;4.350;2023-05-17T08:34:27;17.00;99.90
22491;DHT22;11412;50.802;4.350;2023-05-17T08:36:53;16.90;99.90
22491;DHT22;11412;50.802;4.350;2023-05-17T08:39:19;16.80;99.90
22491;DHT22;11412;50.802;4.350;2023-05-17T08:41:46;16.40;99.90
22491;DHT22;11412;50.802;4.350;2023-05-17T08:44:14;16.10;99.90
22491;DHT22;11412;50.802;4.350;2023-05-17T08:46:42;16.10;99.90
22491;DHT22;11412;50.802;4.350;2023-05-17T08:49:14;16.30;99.90
22491;DHT22;11412;50.802;4.350;2023-05-17T08:51:40;16.30;99.90
22491;DHT22;11412;50.802;4.350;2023-05-17T08:54:06;16.10;99.90
22491;DHT22;11412;50.802;4.350;2023-05-17T08:56:34;15.90;99.90
22491;DHT22;11412;50.802;4.350;2023-05-17T08:59:03;15.70;99.90
22491;DHT22;11412;50.802;4.350;2023-05-17T09:01:32;15.60;99.90
22491;DHT22;11412;50.802;4.350;2023-05-17T09:03:58;15.80;99.90
22491;DHT22;11412;50.802;4.350;2023-05-17T09:06:24;16.40;99.90
22491;DHT22;11412;50.802;4.350;2023-05-17T09:08:54;16.40;99.90
22491;DHT22;11412;50.802;4.350;2023-05-17T09:11:28;16.20;99.90
22491;DHT22;11412;50.802;4.350;2023-05-17T09:13:57;16.20;99.90
22491;DHT22;11412;50.802;4.350;2023-05-17T09:16:24;16.10;99.90
22491;DHT22;11412;50.802;4.350;2023-05-17T09:18:55;16.60;99.90
22491;DHT22;11412;50.802;4.350;2023-05-17T09:21:22;17.00;99.90
22491;DHT22;11412;50.802;4.350;2023-05-17T09:23:48;17.00;99.90
22491;DHT22;11412;50.802;4.350;2023-05-17T09:26:15;17.10;99.90
22491;DHT22;11412;50.802;4.350;2023-05-17T09:28:42;17.30;99.90
22491;DHT22;11412;50.802;4.350;2023-05-17T09:31:10;17.00;99.90
22491;DHT22;11412;50.802;4.350;2023-05-17T09:33:47;17.20;99.90
22491;DHT22;11412;50.802;4.350;2023-05-17T09:36:22;17.50;99.90
22491;DHT22;11412;50.802;4.350;2023-05-17T09:39:14;17.90;99.90
22491;DHT22;11412;50.802;4.350;2023-05-17T09:41:42;18.30;99.90
22491;DHT22;11412;50.802;4.350;2023-05-17T09:44:10;18.50;99.90
22491;DHT22;11412;50.802;4.350;2023-05-17T09:46:44;19.00;99.90
22491;DHT22;11412;50.802;4.350;2023-05-17T09:49:10;18.90;99.90
22491;DHT22;11412;50.802;4.350;2023-05-17T09:51:40;18.70;99.90
22491;DHT22;11412;50.802;4.350;2023-05-17T09:54:07;19.20;99.90
22491;DHT22;11412;50.802;4.350;2023-05-17T09:56:34;19.50;99.90
22491;DHT22;11412;50.802;4.350;2023-05-17T09:59:02;19.60;99.90
22491;DHT22;11412;50.802;4.350;2023-05-17T10:01:29;19.30;99.90
22491;DHT22;11412;50.802;4.350;2023-05-17T10:03:58;19.10;99.90
22491;DHT22;11412;50.802;4.350;2023-05-17T10:06:25;19.00;99.90
22491;DHT22;11412;50.802;4.350;2023-05-17T10:08:55;19.10;99.90
22491;DHT22;11412;50.802;4.350;2023-05-17T10:11:26;19.20;99.90
22491;DHT22;11412;50.802;4.350;2023-05-17T10:14:09;19.40;99.90
22491;DHT22;11412;50.802;4.350;2023-05-17T10:16:38;19.10;99.90
22491;DHT22;11412;50.802;4.350;2023-05-17T10:19:04;19.30;99.90
22491;DHT22;11412;50.802;4.350;2023-05-17T10:21:30;19.40;99.90
22491;DHT22;11412;50.802;4.350;2023-05-17T10:23:59;19.10;99.90
22491;DHT22;11412;50.802;4.350;2023-05-17T10:26:26;19.20;99.90
22491;DHT22;11412;50.802;4.350;2023-05-17T10:29:03;19.60;99.90
22491;DHT22;11412;50.802;4.350;2023-05-17T10:31:31;19.90;99.90
22491;DHT22;11412;50.802;4.350;2023-05-17T10:34:01;19.70;99.90
22491;DHT22;11412;50.802;4.350;2023-05-17T10:36:27;19.90;99.90
22491;DHT22;11412;50.802;4.350;2023-05-17T10:38:54;20.10;99.90
22491;DHT22;11412;50.802;4.350;2023-05-17T10:41:22;19.70;99.90
22491;DHT22;11412;50.802;4.350;2023-05-17T10:43:49;19.90;99.90
22491;DHT22;11412;50.802;4.350;2023-05-17T10:46:17;19.70;99.90
22491;DHT22;11412;50.802;4.350;2023-05-17T10:48:51;19.30;99.90
22491;DHT22;11412;50.802;4.350;2023-05-17T10:51:22;19.50;99.90
22491;DHT22;11412;50.802;4.350;2023-05-17T10:54:13;19.90;99.90
22491;DHT22;11412;50.802;4.350;2023-05-17T10:56:53;20.10;99.90
22491;DHT22;11412;50.802;4.350;2023-05-17T10:59:24;19.70;99.90
22491;DHT22;11412;50.802;4.350;2023-05-17T11:02:08;19.30;99.90
22491;DHT22;11412;50.802;4.350;2023-05-17T11:04:42;19.30;99.90
22491;DHT22;11412;50.802;4.350;2023-05-17T11:12:41;20.60;99.90
22491;DHT22;11412;50.802;4.350;2023-05-17T11:15:09;20.40;99.90
22491;DHT22;11412;50.802;4.350;2023-05-17T11:22:43;20.10;99.90
22491;DHT22;11412;50.802;4.350;2023-05-17T11:25:13;20.60;99.90
22491;DHT22;11412;50.802;4.350;2023-05-17T11:27:48;21.00;99.90
22491;DHT22;11412;50.802;4.350;2023-05-17T11:30:26;21.30;99.90
22491;DHT22;11412;50.802;4.350;2023-05-17T11:32:56;21.50;99.90
22491;DHT22;11412;50.802;4.350;2023-05-17T11:35:26;21.50;99.90
22491;DHT22;11412;50.802;4.350;2023-05-17T11:37:53;21.20;99.90
22491;DHT22;11412;50.802;4.350;2023-05-17T11:40:36;20.90;99.90
22491;DHT22;11412;50.802;4.350;2023-05-17T11:43:32;20.60;99.90
22491;DHT22;11412;50.802;4.350;2023-05-17T11:45:59;20.60;99.90
22491;DHT22;11412;50.802;4.350;2023-05-17T11:48:30;20.60;99.90
22491;DHT22;11412;50.802;4.350;2023-05-17T11:50:56;20.60;99.90
22491;DHT22;11412;50.802;4.350;2023-05-17T11:53:23;20.00;99.90
22491;DHT22;11412;50.802;4.350;2023-05-17T11:55:50;19.70;99.90
22491;DHT22;11412;50.802;4.350;2023-05-17T11:58:23;19.90;99.90
22491;DHT22;11412;50.802;4.350;2023-05-17T12:00:54;20.30;99.90
22491;DHT22;11412;50.802;4.350;2023-05-17T12:03:30;20.70;99.90
22491;DHT22;11412;50.802;4.350;2023-05-17T12:06:10;20.80;99.90
22491;DHT22;11412;50.802;4.350;2023-05-17T12:08:46;21.20;99.90
22491;DHT22;11412;50.802;4.350;2023-05-17T12:11:14;21.10;99.90
22491;DHT22;11412;50.802;4.350;2023-05-17T12:13:41;21.30;99.90
22491;DHT22;11412;50.802;4.350;2023-05-17T12:16:10;21.40;99.90
22491;DHT22;11412;50.802;4.350;2023-05-17T12:18:45;21.60;99.90
22491;DHT22;11412;50.802;4.350;2023-05-17T12:21:13;21.00;99.90
22491;DHT22;11412;50.802;4.350;2023-05-17T12:23:40;20.80;99.90
22491;DHT22;11412;50.802;4.350;2023-05-17T12:26:14;20.70;99.90
22491;DHT22;11412;50.802;4.350;2023-05-17T12:28:44;20.50;99.90
22491;DHT22;11412;50.802;4.350;2023-05-17T12:31:17;20.40;99.90
22491;DHT22;11412;50.802;4.350;2023-05-17T12:33:44;20.60;99.90
22491;DHT22;11412;50.802;4.350;2023-05-17T12:36:12;20.10;99.90
22491;DHT22;11412;50.802;4.350;2023-05-17T12:38:40;20.30;99.90
22491;DHT22;11412;50.802;4.350;2023-05-17T12:41:07;20.50;99.90
22491;DHT22;11412;50.802;4.350;2023-05-17T12:43:34;20.50;99.90
22491;DHT22;11412;50.802;4.350;2023-05-17T12:46:08;20.40;99.90
22491;DHT22;11412;50.802;4.350;2023-05-17T12:48:39;20.30;99.90
22491;DHT22;11412;50.802;4.350;2023-05-17T12:51:13;20.10;99.90
22491;DHT22;11412;50.802;4.350;2023-05-17T12:53:41;20.50;99.90
22491;DHT22;11412;50.802;4.350;2023-05-17T12:56:10;21.10;99.90
22491;DHT22;11412;50.802;4.350;2023-05-17T12:58:38;21.10;99.90
22491;DHT22;11412;50.802;4.350;2023-05-17T13:01:04;20.90;99.90
22491;DHT22;11412;50.802;4.350;2023-05-17T13:03:38;20.60;99.90
22491;DHT22;11412;50.802;4.350;2023-05-17T13:06:05;20.20;99.90
22491;DHT22;11412;50.802;4.350;2023-05-17T13:08:32;20.20;99.90
22491;DHT22;11412;50.802;4.350;2023-05-17T13:11:12;20.40;99.90
22491;DHT22;11412;50.802;4.350;2023-05-17T13:13:38;20.20;99.90
22491;DHT22;11412;50.802;4.350;2023-05-17T13:16:04;20.30;99.90
22491;DHT22;11412;50.802;4.350;2023-05-17T13:18:31;20.40;99.90
22491;DHT22;11412;50.802;4.350;2023-05-17T13:21:10;20.70;99.90
22491;DHT22;11412;50.802;4.350;2023-05-17T13:23:42;20.60;99.90
22491;DHT22;11412;50.802;4.350;2023-05-17T13:26:08;20.90;99.90
22491;DHT22;11412;50.802;4.350;2023-05-17T13:28:34;20.50;99.90
22491;DHT22;11412;50.802;4.350;2023-05-17T13:30:59;20.20;99.90
22491;DHT22;11412;50.802;4.350;2023-05-17T13:33:25;20.40;99.90
22491;DHT22;11412;50.802;4.350;2023-05-17T13:35:52;21.00;99.90
22491;DHT22;11412;50.802;4.350;2023-05-17T13:38:17;21.30;99.90
22491;DHT22;11412;50.802;4.350;2023-05-17T13:40:43;20.90;99.90
22491;DHT22;11412;50.802;4.350;2023-05-17T13:43:09;20.40;99.90
22491;DHT22;11412;50.802;4.350;2023-05-17T13:45:35;20.60;99.90
22491;DHT22;11412;50.802;4.350;2023-05-17T13:48:01;20.70;99.90
22491;DHT22;11412;50.802;4.350;2023-05-17T13:50:27;20.90;99.90
22491;DHT22;11412;50.802;4.350;2023-05-17T13:52:53;20.50;99.90
22491;DHT22;11412;50.802;4.350;2023-05-17T13:55:19;20.60;99.90
22491;DHT22;11412;50.802;4.350;2023-05-17T13:57:44;20.20;99.90
22491;DHT22;11412;50.802;4.350;2023-05-17T14:00:11;20.10;99.90
22491;DHT22;11412;50.802;4.350;2023-05-17T14:02:37;20.20;99.90
22491;DHT22;11412;50.802;4.350;2023-05-17T14:05:02;19.90;99.90
22491;DHT22;11412;50.802;4.350;2023-05-17T14:07:29;19.70;99.90
22491;DHT22;11412;50.802;4.350;2023-05-17T14:09:55;19.50;99.90
22491;DHT22;11412;50.802;4.350;2023-05-17T14:12:21;19.10;99.90
22491;DHT22;11412;50.802;4.350;2023-05-17T14:14:46;19.30;99.90
22491;DHT22;11412;50.802;4.350;2023-05-17T14:17:12;19.30;99.90
22491;DHT22;11412;50.802;4.350;2023-05-17T14:19:38;19.30;99.90
22491;DHT22;11412;50.802;4.350;2023-05-17T14:22:03;19.30;99.90
22491;DHT22;11412;50.802;4.350;2023-05-17T14:24:29;19.30;99.90
22491;DHT22;11412;50.802;4.350;2023-05-17T14:26:55;19.30;99.90
22491;DHT22;11412;50.802;4.350;2023-05-17T14:29:22;19.00;99.90
22491;DHT22;11412;50.802;4.350;2023-05-17T14:31:47;18.90;99.90
22491;DHT22;11412;50.802;4.350;2023-05-17T14:34:13;19.00;99.90
22491;DHT22;11412;50.802;4.350;2023-05-17T14:36:39;19.10;99.90
22491;DHT22;11412;50.802;4.350;2023-05-17T14:39:05;19.10;99.90
22491;DHT22;11412;50.802;4.350;2023-05-17T14:41:30;19.00;99.90
22491;DHT22;11412;50.802;4.350;2023-05-17T14:43:56;18.80;99.90
22491;DHT22;11412;50.802;4.350;2023-05-17T14:46:22;18.70;99.90
22491;DHT22;11412;50.802;4.350;2023-05-17T14:48:48;18.90;99.90
22491;DHT22;11412;50.802;4.350;2023-05-17T14:51:16;18.90;99.90
22491;DHT22;11412;50.802;4.350;2023-05-17T14:53:43;18.80;99.90
22491;DHT22;11412;50.802;4.350;2023-05-17T14:56:08;18.70;99.90
22491;DHT22;11412;50.802;4.350;2023-05-17T14:58:34;18.50;99.90
22491;DHT22;11412;50.802;4.350;2023-05-17T15:01:00;18.50;99.90
22491;DHT22;11412;50.802;4.350;2023-05-17T15:03:26;18.20;99.90
22491;DHT22;11412;50.802;4.350;2023-05-17T15:05:55;18.10;99.90
22491;DHT22;11412;50.802;4.350;2023-05-17T15:08:21;18.40;99.90
22491;DHT22;11412;50.802;4.350;2023-05-17T15:10:50;18.50;99.90
22491;DHT22;11412;50.802;4.350;2023-05-17T15:13:16;18.60;99.90
22491;DHT22;11412;50.802;4.350;2023-05-17T15:15:43;18.90;99.90
22491;DHT22;11412;50.802;4.350;2023-05-17T15:18:09;18.90;99.90
22491;DHT22;11412;50.802;4.350;2023-05-17T15:20:39;18.80;99.90
22491;DHT22;11412;50.802;4.350;2023-05-17T15:23:05;18.60;99.90
22491;DHT22;11412;50.802;4.350;2023-05-17T15:25:31;18.30;99.90
22491;DHT22;11412;50.802;4.350;2023-05-17T15:27:57;18.30;99.90
22491;DHT22;11412;50.802;4.350;2023-05-17T15:30:23;18.60;99.90
22491;DHT22;11412;50.802;4.350;2023-05-17T15:32:52;18.50;99.90
22491;DHT22;11412;50.802;4.350;2023-05-17T15:35:18;18.40;99.90
22491;DHT22;11412;50.802;4.350;2023-05-17T15:37:44;18.30;99.90
22491;DHT22;11412;50.802;4.350;2023-05-17T15:40:12;18.30;99.90
22491;DHT22;11412;50.802;4.350;2023-05-17T15:42:38;18.20;99.90
22491;DHT22;11412;50.802;4.350;2023-05-17T15:45:04;17.90;99.90
22491;DHT22;11412;50.802;4.350;2023-05-17T15:47:31;18.00;99.90
22491;DHT22;11412;50.802;4.350;2023-05-17T15:49:58;18.00;99.90
22491;DHT22;11412;50.802;4.350;2023-05-17T15:52:24;17.90;99.90
22491;DHT22;11412;50.802;4.350;2023-05-17T15:54:49;17.70;99.90